Time;durP1;ratioP1;P1;durP2;ratioP2;P2;SDS_P1;SDS_P2;PMS_P1;PMS_P2;Temp;Humidity;BMP_temperature;BMP_pressure;BME280_temperature;BME280_humidity;BME280_pressure;Samples;Min_cycle;Max_cycle;Signal;HPM_P1;HPM_P2
2022/05/10 00:01:13;;;;;;;18.90;7.45;;;13.80;99.90;;;;;;4983540;28;20038;-68
2022/05/10 00:03:39;;;;;;;17.40;6.05;;;13.80;99.90;;;;;;4983884;28;20050;-68
2022/05/10 00:06:06;;;;;;;20.80;7.32;;;13.80;99.90;;;;;;4983141;28;20050;-68
2022/05/10 00:08:32;;;;;;;16.23;6.40;;;13.80;99.90;;;;;;4981909;28;20047;-68
2022/05/10 00:10:58;;;;;;;16.70;6.28;;;13.80;99.90;;;;;;4982520;28;20045;-69
2022/05/10 00:13:25;;;;;;;16.75;6.03;;;13.80;99.90;;;;;;4983378;28;20043;-69
2022/05/10 00:15:51;;;;;;;21.65;6.55;;;13.80;99.90;;;;;;4987126;28;20038;-69
2022/05/10 00:18:18;;;;;;;15.25;6.15;;;13.80;99.90;;;;;;4991159;28;20034;-69
2022/05/10 00:20:45;;;;;;;15.88;6.47;;;13.70;99.90;;;;;;4988100;28;20049;-69
2022/05/10 00:23:11;;;;;;;17.17;5.47;;;13.70;99.90;;;;;;4988438;28;20050;-68
2022/05/10 00:25:38;;;;;;;14.98;6.00;;;13.80;99.90;;;;;;4985504;28;20043;-68
2022/05/10 00:28:04;;;;;;;12.63;5.53;;;13.70;99.90;;;;;;4989257;28;20046;-68
2022/05/10 00:30:31;;;;;;;17.58;7.07;;;13.70;99.90;;;;;;4989788;28;20065;-69
2022/05/10 00:32:57;;;;;;;11.98;6.07;;;13.70;99.90;;;;;;4986021;28;20054;-68
2022/05/10 00:35:26;;;;;;;14.27;6.00;;;13.70;99.90;;;;;;4988962;28;20050;-68
2022/05/10 00:37:55;;;;;;;18.52;5.97;;;13.70;99.90;;;;;;4989526;28;20078;-68
2022/05/10 00:40:24;;;;;;;14.18;6.00;;;13.60;99.90;;;;;;4986210;28;20113;-67
2022/05/10 00:42:57;;;;;;;15.50;6.18;;;13.70;99.90;;;;;;4987384;28;20546;-69
2022/05/10 00:45:42;;;;;;;14.55;6.20;;;13.60;99.90;;;;;;4987102;28;20468;-69
2022/05/10 00:48:37;;;;;;;11.65;6.30;;;13.60;99.90;;;;;;4987392;28;20466;-69
2022/05/10 00:51:42;;;;;;;15.68;6.18;;;13.50;99.90;;;;;;4989913;28;20133;-69
2022/05/10 00:54:29;;;;;;;12.57;5.78;;;13.50;99.90;;;;;;4989651;28;20147;-69
2022/05/10 00:57:07;;;;;;;15.82;5.78;;;13.50;99.90;;;;;;4986899;28;20439;-68
2022/05/10 00:59:47;;;;;;;14.10;5.95;;;13.40;99.90;;;;;;4984177;28;20109;-69
2022/05/10 01:02:30;;;;;;;14.27;6.63;;;13.40;99.90;;;;;;4986316;28;20046;-69
2022/05/10 01:05:01;;;;;;;17.92;6.50;;;13.40;99.90;;;;;;4987047;28;21211;-69
2022/05/10 01:07:35;;;;;;;20.52;7.03;;;13.40;99.90;;;;;;4992344;28;20086;-69
2022/05/10 01:10:31;;;;;;;15.80;6.80;;;13.40;99.90;;;;;;4984505;28;20051;-68
2022/05/10 01:13:08;;;;;;;15.20;6.32;;;13.40;99.90;;;;;;4980963;28;20051;-69
2022/05/10 01:15:36;;;;;;;14.48;6.07;;;13.40;99.90;;;;;;4992411;28;20053;-68
2022/05/10 01:18:01;;;;;;;17.45;6.25;;;13.30;99.90;;;;;;4994500;28;20042;-68
2022/05/10 01:20:42;;;;;;;13.38;6.22;;;13.30;99.90;;;;;;4992226;28;20053;-69
2022/05/10 01:24:03;;;;;;;12.77;5.30;;;13.30;99.90;;;;;;4986852;28;20050;-69
2022/05/10 01:26:32;;;;;;;13.15;5.50;;;13.30;99.90;;;;;;4936134;28;20062;-69
2022/05/10 01:29:04;;;;;;;13.10;5.63;;;13.30;99.90;;;;;;4983708;28;20048;-69
2022/05/10 01:31:45;;;;;;;12.98;5.85;;;13.30;99.90;;;;;;4988402;28;20073;-69
2022/05/10 01:34:16;;;;;;;12.63;5.45;;;13.30;99.90;;;;;;4984388;28;20053;-69
2022/05/10 01:36:54;;;;;;;19.23;5.72;;;13.40;99.90;;;;;;4989717;28;20038;-69
2022/05/10 01:39:32;;;;;;;18.17;5.50;;;13.40;99.90;;;;;;4996204;28;20038;-69
2022/05/10 01:42:15;;;;;;;13.30;5.40;;;13.50;99.90;;;;;;4969840;28;20053;-69
2022/05/10 01:44:51;;;;;;;17.95;5.38;;;13.40;99.90;;;;;;4990851;28;20107;-69
2022/05/10 01:47:19;;;;;;;15.50;5.82;;;13.40;99.90;;;;;;4990804;28;20046;-69
2022/05/10 01:50:03;;;;;;;18.00;5.50;;;13.40;99.90;;;;;;4988718;28;20101;-68
2022/05/10 01:52:48;;;;;;;11.93;5.10;;;13.40;99.90;;;;;;4987069;28;20081;-70
2022/05/10 01:55:27;;;;;;;16.88;5.35;;;13.50;99.90;;;;;;4991684;28;20082;-69
2022/05/10 01:57:55;;;;;;;11.02;4.72;;;13.50;99.90;;;;;;4990184;28;20043;-69
2022/05/10 02:00:27;;;;;;;11.90;5.35;;;13.50;99.90;;;;;;4987451;28;20048;-69
2022/05/10 02:03:13;;;;;;;13.27;5.88;;;13.60;99.90;;;;;;4988389;28;20046;-69
2022/05/10 02:05:55;;;;;;;16.08;5.65;;;13.60;99.90;;;;;;4985947;28;20034;-67
2022/05/10 02:08:37;;;;;;;11.32;5.40;;;13.60;99.90;;;;;;4986926;28;20050;-68
2022/05/10 02:11:10;;;;;;;15.50;6.07;;;13.60;99.90;;;;;;4987542;28;20039;-68
2022/05/10 02:13:42;;;;;;;16.75;5.97;;;13.70;99.90;;;;;;4986939;28;20097;-68
2022/05/10 02:16:22;;;;;;;12.10;5.13;;;13.70;99.90;;;;;;4985501;28;20062;-70
2022/05/10 02:18:57;;;;;;;18.30;5.82;;;13.70;99.90;;;;;;4985421;28;22165;-69
2022/05/10 02:21:30;;;;;;;20.23;5.90;;;13.70;99.90;;;;;;4981667;28;20595;-69
2022/05/10 02:24:03;;;;;;;11.63;5.60;;;13.70;99.90;;;;;;4993619;28;20100;-69
2022/05/10 02:26:36;;;;;;;15.80;6.00;;;13.80;99.90;;;;;;4983572;28;20662;-70
2022/05/10 02:29:15;;;;;;;19.55;6.30;;;13.80;99.90;;;;;;4986702;28;20089;-69
2022/05/10 02:34:37;;;;;;;18.02;6.10;;;13.80;99.90;;;;;;4982884;28;20182;-69
2022/05/10 02:37:03;;;;;;;12.63;6.22;;;13.80;99.90;;;;;;4985169;28;20045;-68
2022/05/10 02:39:29;;;;;;;22.67;6.40;;;13.90;99.90;;;;;;4982766;28;20042;-67
2022/05/10 02:41:57;;;;;;;11.20;5.47;;;13.90;99.90;;;;;;4996783;28;20046;-69
2022/05/10 02:44:23;;;;;;;17.00;6.35;;;13.90;99.90;;;;;;4985329;28;20053;-69
2022/05/10 02:46:49;;;;;;;10.98;5.25;;;13.90;99.90;;;;;;4984736;28;20512;-69
2022/05/10 02:49:14;;;;;;;14.95;5.97;;;13.90;99.90;;;;;;4986723;28;20093;-67
2022/05/10 02:51:40;;;;;;;14.52;5.80;;;13.90;99.90;;;;;;4985483;28;20527;-68
2022/05/10 02:54:06;;;;;;;12.40;6.05;;;13.80;99.90;;;;;;4969728;28;20061;-68
2022/05/10 02:56:32;;;;;;;13.13;5.90;;;13.80;99.90;;;;;;4988168;28;20134;-68
2022/05/10 02:59:13;;;;;;;12.27;6.05;;;13.80;99.90;;;;;;4990461;28;20130;-69
2022/05/10 03:01:44;;;;;;;14.45;6.60;;;13.80;99.90;;;;;;4984864;28;20061;-68
2022/05/10 03:04:11;;;;;;;14.80;6.80;;;13.80;99.90;;;;;;4984421;28;20567;-68
2022/05/10 03:06:38;;;;;;;11.38;5.95;;;13.70;99.90;;;;;;4984211;28;20057;-68
2022/05/10 03:09:05;;;;;;;14.90;6.70;;;13.80;99.90;;;;;;4991644;28;20078;-69
2022/05/10 03:11:31;;;;;;;13.88;6.47;;;14.60;99.90;;;;;;4988686;28;20070;-68
2022/05/10 03:13:58;;;;;;;15.80;6.20;;;13.70;99.90;;;;;;4983747;28;20492;-69
2022/05/10 03:16:25;;;;;;;12.90;6.05;;;13.70;99.90;;;;;;4985166;28;20034;-69
2022/05/10 03:18:52;;;;;;;16.30;6.18;;;13.70;99.90;;;;;;4984939;28;20034;-69
2022/05/10 03:21:18;;;;;;;16.95;6.03;;;13.70;99.90;;;;;;4984263;28;20054;-69
2022/05/10 03:23:44;;;;;;;16.20;6.32;;;13.70;99.90;;;;;;4984246;28;20042;-69
2022/05/10 03:26:11;;;;;;;13.02;6.53;;;13.60;99.90;;;;;;4985096;28;20082;-69
2022/05/10 03:28:38;;;;;;;13.43;6.10;;;13.60;99.90;;;;;;4984486;28;20056;-69
2022/05/10 03:31:05;;;;;;;14.65;6.43;;;13.70;99.90;;;;;;4983320;28;20042;-68
2022/05/10 03:33:31;;;;;;;13.05;7.15;;;13.60;99.90;;;;;;4985102;28;20050;-68
2022/05/10 03:35:57;;;;;;;15.63;6.85;;;13.60;99.90;;;;;;4984130;28;20049;-68
2022/05/10 03:38:23;;;;;;;21.08;7.47;;;13.60;99.90;;;;;;4981326;28;20046;-69
2022/05/10 03:40:48;;;;;;;14.15;6.10;;;13.60;99.90;;;;;;4988629;28;20046;-69
2022/05/10 03:43:14;;;;;;;13.93;6.72;;;13.60;99.90;;;;;;4991519;28;20035;-68
2022/05/10 03:45:40;;;;;;;16.85;6.85;;;13.60;99.90;;;;;;4971249;28;20045;-68
2022/05/10 03:48:06;;;;;;;16.65;6.53;;;13.60;99.90;;;;;;4988772;28;20068;-68
2022/05/10 03:50:32;;;;;;;22.40;7.20;;;13.60;99.90;;;;;;4991747;28;20508;-68
2022/05/10 03:52:58;;;;;;;18.35;7.30;;;13.70;99.90;;;;;;4990292;28;20133;-68
2022/05/10 03:55:26;;;;;;;16.75;7.60;;;13.70;99.90;;;;;;4992600;28;20125;-68
2022/05/10 03:57:53;;;;;;;16.20;7.38;;;13.70;99.90;;;;;;4988757;28;20449;-69
2022/05/10 04:00:28;;;;;;;14.80;6.95;;;13.70;99.90;;;;;;4984985;28;20058;-67
2022/05/10 04:02:56;;;;;;;15.30;7.15;;;13.70;99.90;;;;;;4984373;28;20085;-68
2022/05/10 04:05:23;;;;;;;17.85;7.65;;;13.70;99.90;;;;;;4987279;28;20405;-68
2022/05/10 04:07:49;;;;;;;20.35;7.72;;;13.80;99.90;;;;;;4986989;28;20130;-68
2022/05/10 04:10:17;;;;;;;13.93;7.47;;;13.80;99.90;;;;;;4982986;28;20050;-69
2022/05/10 04:12:42;;;;;;;15.37;7.27;;;13.80;99.90;;;;;;4966049;28;20046;-68
2022/05/10 04:15:11;;;;;;;18.88;7.32;;;13.90;99.90;;;;;;4986586;28;20385;-70
2022/05/10 04:17:37;;;;;;;17.95;7.65;;;13.90;99.90;;;;;;4984852;28;20396;-69
2022/05/10 04:20:06;;;;;;;17.60;7.60;;;13.80;99.90;;;;;;4982120;28;20037;-69
2022/05/10 04:22:32;;;;;;;17.38;8.10;;;13.90;99.90;;;;;;4986073;28;20124;-69
2022/05/10 04:24:58;;;;;;;15.32;8.60;;;13.90;99.90;;;;;;4979524;28;20048;-68
2022/05/10 04:27:24;;;;;;;15.70;8.23;;;14.00;99.90;;;;;;4979948;28;20038;-68
2022/05/10 04:29:49;;;;;;;20.50;8.10;;;14.00;99.90;;;;;;4984111;28;20050;-68
2022/05/10 04:32:15;;;;;;;18.00;8.15;;;14.00;99.90;;;;;;4982816;28;20039;-68
2022/05/10 04:34:40;;;;;;;18.27;8.05;;;14.10;99.90;;;;;;4981609;28;20596;-68
2022/05/10 04:37:06;;;;;;;15.10;8.43;;;14.10;99.90;;;;;;4986972;28;20389;-68
2022/05/10 04:42:17;;;;;;;14.70;8.10;;;14.20;99.90;;;;;;4981361;28;20064;-67
2022/05/10 04:44:42;;;;;;;14.48;7.28;;;14.20;99.90;;;;;;4983998;28;20092;-67
2022/05/10 04:47:08;;;;;;;13.68;7.80;;;14.30;99.90;;;;;;4982774;28;20034;-67
2022/05/10 04:49:33;;;;;;;16.27;7.13;;;14.30;99.90;;;;;;4977969;28;20545;-68
2022/05/10 04:51:59;;;;;;;17.73;7.18;;;14.30;99.90;;;;;;4996515;28;20485;-68
2022/05/10 04:54:25;;;;;;;17.50;8.18;;;14.40;99.90;;;;;;4973009;28;20038;-68
2022/05/10 04:56:50;;;;;;;15.70;7.50;;;14.40;99.90;;;;;;4986764;28;20152;-68
2022/05/10 04:59:16;;;;;;;19.00;7.97;;;14.40;99.90;;;;;;4988020;28;20060;-68
2022/05/10 05:01:41;;;;;;;17.83;7.45;;;14.50;99.90;;;;;;4991147;28;20121;-68
2022/05/10 05:04:07;;;;;;;20.27;7.93;;;14.50;99.90;;;;;;4988840;28;22227;-69
2022/05/10 05:06:39;;;;;;;23.55;8.45;;;14.50;99.90;;;;;;4990811;28;20051;-68
2022/05/10 05:09:06;;;;;;;14.52;8.07;;;14.50;99.90;;;;;;4986648;28;20039;-68
2022/05/10 05:11:31;;;;;;;18.27;8.70;;;14.60;99.90;;;;;;4990113;28;20046;-69
2022/05/10 05:13:57;;;;;;;18.45;8.00;;;14.60;99.90;;;;;;4991791;28;20404;-69
2022/05/10 05:16:23;;;;;;;17.90;8.02;;;14.60;99.90;;;;;;4984613;28;20039;-70
2022/05/10 05:18:48;;;;;;;18.05;8.70;;;14.60;99.90;;;;;;4989258;28;20129;-68
2022/05/10 05:21:15;;;;;;;15.95;8.27;;;14.70;99.90;;;;;;4989266;28;20085;-68
2022/05/10 05:23:40;;;;;;;16.27;8.57;;;14.70;99.90;;;;;;4990994;28;20046;-68
2022/05/10 05:26:06;;;;;;;18.00;8.05;;;14.80;99.90;;;;;;4990562;28;20454;-68
2022/05/10 05:28:32;;;;;;;23.05;8.85;;;14.80;99.90;;;;;;4987062;28;20046;-68
2022/05/10 05:30:58;;;;;;;17.52;7.57;;;14.80;99.90;;;;;;4990261;28;20074;-67
2022/05/10 05:33:24;;;;;;;20.20;8.57;;;14.80;99.90;;;;;;4983127;28;20054;-67
2022/05/10 05:35:50;;;;;;;22.75;9.35;;;14.90;99.90;;;;;;4973747;28;20046;-68
2022/05/10 05:38:15;;;;;;;24.70;8.57;;;15.00;99.90;;;;;;4982711;28;20038;-68
2022/05/10 05:40:41;;;;;;;16.60;7.63;;;15.10;99.90;;;;;;4997198;28;20132;-68
2022/05/10 05:43:07;;;;;;;21.67;8.32;;;15.10;99.90;;;;;;4993385;28;20045;-67
2022/05/10 05:45:33;;;;;;;15.93;7.68;;;15.20;99.90;;;;;;4992279;28;20046;-68
2022/05/10 05:47:59;;;;;;;20.20;7.35;;;15.20;99.90;;;;;;4994658;28;20042;-70
2022/05/10 05:50:25;;;;;;;13.98;8.35;;;15.30;99.90;;;;;;4976307;28;20061;-67
2022/05/10 05:52:52;;;;;;;13.60;7.80;;;15.20;99.90;;;;;;5003900;28;20038;-67
2022/05/10 05:55:19;;;;;;;13.55;8.32;;;15.40;99.90;;;;;;4982458;28;20119;-68
2022/05/10 05:57:45;;;;;;;15.60;8.45;;;15.40;99.90;;;;;;4994632;28;20436;-67
2022/05/10 06:00:15;;;;;;;17.65;8.55;;;15.40;99.90;;;;;;4986722;28;20422;-68
2022/05/10 06:02:42;;;;;;;18.67;8.70;;;15.50;99.90;;;;;;4974454;28;20117;-68
2022/05/10 06:05:08;;;;;;;15.57;9.30;;;15.50;99.90;;;;;;4986669;28;20082;-68
2022/05/10 06:07:34;;;;;;;24.05;9.13;;;15.60;99.90;;;;;;5005464;28;20125;-68
2022/05/10 06:09:59;;;;;;;17.35;8.25;;;15.60;99.90;;;;;;4982526;28;20050;-68
2022/05/10 06:12:25;;;;;;;17.60;7.78;;;15.70;99.90;;;;;;4992469;28;20038;-68
2022/05/10 06:14:51;;;;;;;20.98;8.13;;;15.80;99.90;;;;;;4987467;28;20043;-68
2022/05/10 06:17:17;;;;;;;21.15;8.90;;;15.90;99.90;;;;;;4984553;28;20050;-68
2022/05/10 06:19:44;;;;;;;15.13;8.40;;;16.00;99.90;;;;;;4993061;28;20081;-68
2022/05/10 06:22:11;;;;;;;19.30;9.00;;;16.20;99.90;;;;;;4990752;28;20042;-66
2022/05/10 06:24:38;;;;;;;20.65;8.05;;;16.30;99.90;;;;;;4992052;28;20050;-68
2022/05/10 06:27:05;;;;;;;12.35;7.53;;;16.40;99.90;;;;;;4991534;28;20089;-68
2022/05/10 06:29:31;;;;;;;18.58;7.82;;;16.70;99.90;;;;;;4993135;28;20492;-68
2022/05/10 06:31:57;;;;;;;20.10;8.38;;;16.90;99.90;;;;;;4993009;28;20049;-68
2022/05/10 06:34:23;;;;;;;17.60;7.35;;;17.10;99.90;;;;;;4989755;28;20038;-68
2022/05/10 06:36:48;;;;;;;17.30;7.95;;;17.30;99.90;;;;;;4985753;28;20114;-69
2022/05/10 06:39:14;;;;;;;19.13;7.25;;;17.50;99.90;;;;;;4990987;28;20042;-68
2022/05/10 06:41:40;;;;;;;12.63;7.05;;;17.70;99.90;;;;;;4963753;28;20451;-68
2022/05/10 06:44:07;;;;;;;18.23;7.97;;;17.80;99.90;;;;;;4992629;28;20046;-67
2022/05/10 06:46:34;;;;;;;12.82;7.57;;;18.20;99.90;;;;;;4991838;28;20042;-67
2022/05/10 06:49:01;;;;;;;10.68;6.40;;;18.40;99.80;;;;;;4991149;28;20142;-68
2022/05/10 06:51:28;;;;;;;13.80;6.60;;;18.60;99.20;;;;;;4991883;28;20043;-68
2022/05/10 06:53:54;;;;;;;16.35;6.63;;;18.90;98.80;;;;;;4991894;28;20039;-68
2022/05/10 06:56:20;;;;;;;22.70;6.80;;;19.00;98.10;;;;;;4991301;28;20046;-68
2022/05/10 06:58:47;;;;;;;12.60;5.90;;;19.10;97.70;;;;;;4991942;28;20085;-69
2022/05/10 07:01:13;;;;;;;16.83;6.18;;;19.20;97.50;;;;;;4996522;28;20571;-68
2022/05/10 07:03:49;;;;;;;12.18;6.22;;;19.30;97.40;;;;;;5010207;28;20552;-68
2022/05/10 07:06:17;;;;;;;10.05;6.20;;;19.30;97.00;;;;;;4992174;28;20065;-69
2022/05/10 07:08:43;;;;;;;13.70;6.35;;;19.50;97.50;;;;;;4982031;28;20124;-68
2022/05/10 07:11:09;;;;;;;9.65;6.20;;;19.50;97.20;;;;;;4988060;28;20054;-68
2022/05/10 07:13:36;;;;;;;14.65;5.97;;;19.50;96.90;;;;;;4990274;28;20054;-69
2022/05/10 07:16:03;;;;;;;14.35;6.18;;;19.60;96.50;;;;;;5002936;28;20077;-68
2022/05/10 07:18:29;;;;;;;11.93;6.00;;;19.60;96.40;;;;;;4990371;28;20050;-67
2022/05/10 07:20:54;;;;;;;12.68;5.53;;;19.70;96.60;;;;;;4990512;28;20046;-68
2022/05/10 07:23:23;;;;;;;15.13;5.45;;;19.80;96.70;;;;;;4974645;28;20676;-67
2022/05/10 07:25:48;;;;;;;10.15;5.85;;;19.90;96.40;;;;;;4992375;28;20125;-68
2022/05/10 07:28:14;;;;;;;10.93;5.55;;;19.90;96.00;;;;;;4987063;28;20480;-67
2022/05/10 07:30:40;;;;;;;14.00;5.63;;;19.90;95.70;;;;;;4991436;28;20051;-68
2022/05/10 07:33:06;;;;;;;13.80;5.90;;;20.00;95.60;;;;;;4992880;28;20492;-67
2022/05/10 07:38:18;;;;;;;15.60;5.72;;;20.30;95.70;;;;;;4976504;28;20051;-67
2022/05/10 07:40:47;;;;;;;9.40;5.72;;;20.60;95.50;;;;;;4996415;28;20077;-67
2022/05/10 07:43:14;;;;;;;13.50;5.40;;;20.80;94.60;;;;;;4996007;28;20560;-68
2022/05/10 07:45:45;;;;;;;15.37;6.40;;;21.00;94.90;;;;;;4995791;28;20126;-67
2022/05/10 07:48:11;;;;;;;15.40;5.72;;;21.10;94.80;;;;;;4991451;28;20807;-67
2022/05/10 07:50:37;;;;;;;14.10;5.72;;;21.20;94.20;;;;;;4992316;28;20753;-68
2022/05/10 07:53:06;;;;;;;15.35;5.47;;;21.30;93.80;;;;;;4992590;28;20046;-67
2022/05/10 07:55:36;;;;;;;10.50;6.15;;;21.30;93.20;;;;;;4992848;28;20049;-68
2022/05/10 07:58:04;;;;;;;11.20;5.20;;;21.30;92.60;;;;;;4992556;28;20121;-69
2022/05/10 08:00:30;;;;;;;11.90;4.93;;;21.30;92.40;;;;;;4988865;28;20065;-68
2022/05/10 08:02:56;;;;;;;8.30;4.47;;;21.30;92.60;;;;;;4991681;28;20515;-67
2022/05/10 08:05:24;;;;;;;21.13;4.88;;;21.30;93.00;;;;;;4988433;28;20043;-67
2022/05/10 08:07:51;;;;;;;11.50;4.32;;;21.30;93.10;;;;;;4992408;28;20050;-67
2022/05/10 08:10:18;;;;;;;13.65;4.68;;;21.40;93.50;;;;;;4979862;28;20500;-67
2022/05/10 08:12:44;;;;;;;11.68;4.40;;;21.50;93.10;;;;;;4990863;28;20046;-67
2022/05/10 08:15:10;;;;;;;12.15;3.90;;;21.70;92.90;;;;;;4984529;28;20043;-68
2022/05/10 08:17:37;;;;;;;12.40;4.18;;;21.70;92.60;;;;;;4991409;28;20073;-67
2022/05/10 08:20:05;;;;;;;10.32;4.03;;;21.80;92.40;;;;;;4989114;28;20460;-67
2022/05/10 08:22:31;;;;;;;14.20;4.38;;;21.70;91.10;;;;;;4990445;28;20124;-67
2022/05/10 08:24:57;;;;;;;11.05;4.38;;;21.70;90.70;;;;;;4971108;28;20142;-68
2022/05/10 08:27:22;;;;;;;13.77;3.88;;;21.80;91.10;;;;;;4983345;28;20386;-67
2022/05/10 08:29:48;;;;;;;14.40;4.07;;;21.70;91.30;;;;;;4986882;28;20042;-68
2022/05/10 08:32:14;;;;;;;14.95;4.70;;;21.70;91.30;;;;;;4992612;28;20061;-67
2022/05/10 08:34:39;;;;;;;16.67;3.95;;;21.70;90.90;;;;;;4991441;28;20596;-67
2022/05/10 08:37:06;;;;;;;21.55;4.88;;;21.60;91.10;;;;;;4989346;28;20523;-67
2022/05/10 08:39:31;;;;;;;9.93;3.97;;;21.60;91.20;;;;;;4982039;28;20509;-67
2022/05/10 08:42:01;;;;;;;19.33;4.30;;;21.70;91.70;;;;;;4991944;28;20100;-68
2022/05/10 08:44:35;;;;;;;11.13;4.05;;;21.60;91.70;;;;;;4991049;28;20046;-69
2022/05/10 08:47:06;;;;;;;11.82;3.70;;;21.90;91.20;;;;;;4979112;28;20154;-68
2022/05/10 08:49:45;;;;;;;12.38;3.67;;;22.00;91.40;;;;;;4988013;28;20515;-67
2022/05/10 08:52:13;;;;;;;12.43;4.18;;;22.10;90.80;;;;;;4987927;28;20135;-67
2022/05/10 08:54:41;;;;;;;14.82;3.75;;;22.10;90.80;;;;;;4989905;28;20042;-67
2022/05/10 08:57:21;;;;;;;10.63;4.15;;;22.00;90.50;;;;;;4989967;28;20057;-67
2022/05/10 09:00:09;;;;;;;12.40;3.78;;;22.10;90.70;;;;;;4993480;28;20436;-68
2022/05/10 09:02:48;;;;;;;13.70;4.50;;;22.10;90.30;;;;;;4995621;28;20427;-69
2022/05/10 09:05:28;;;;;;;10.63;4.22;;;22.20;90.20;;;;;;4995003;28;20382;-68
2022/05/10 09:08:13;;;;;;;12.15;3.95;;;22.10;89.60;;;;;;4995259;28;20050;-68
2022/05/10 09:11:02;;;;;;;10.88;3.78;;;22.20;90.00;;;;;;4994603;28;20050;-67
2022/05/10 09:13:29;;;;;;;18.38;3.88;;;22.20;90.20;;;;;;4977142;28;20101;-67
2022/05/10 09:16:01;;;;;;;7.60;3.67;;;22.30;89.50;;;;;;4992741;28;20042;-67
2022/05/10 09:18:31;;;;;;;14.45;3.38;;;22.30;90.00;;;;;;4990691;28;20088;-68
2022/05/10 09:21:21;;;;;;;13.60;3.22;;;22.40;90.10;;;;;;4997411;28;20042;-68
2022/05/10 09:24:01;;;;;;;11.77;3.40;;;22.30;88.10;;;;;;4993675;28;20046;-68
2022/05/10 09:26:38;;;;;;;7.30;3.30;;;22.30;89.10;;;;;;4993166;28;20056;-68
2022/05/10 09:29:36;;;;;;;12.90;3.70;;;22.40;88.90;;;;;;4993090;28;20034;-67
2022/05/10 09:35:29;;;;;;;7.20;3.35;;;22.70;87.30;;;;;;5006678;28;20381;-68
2022/05/10 09:38:08;;;;;;;18.75;4.00;;;22.80;87.40;;;;;;4976221;28;20043;-68
2022/05/10 09:40:35;;;;;;;32.30;4.85;;;23.00;88.00;;;;;;4987961;28;20396;-67
2022/05/10 09:43:18;;;;;;;10.38;3.20;;;23.10;87.00;;;;;;4994411;28;20049;-67
2022/05/10 09:45:45;;;;;;;12.70;3.58;;;23.20;87.00;;;;;;4989839;28;20047;-67
2022/05/10 09:48:15;;;;;;;7.37;3.30;;;23.40;86.20;;;;;;5009043;28;20073;-68
2022/05/10 09:50:52;;;;;;;10.52;3.00;;;23.50;85.10;;;;;;4994702;28;20057;-68
2022/05/10 09:53:22;;;;;;;18.55;3.70;;;23.70;85.60;;;;;;4993260;28;20042;-68
2022/05/10 09:56:15;;;;;;;17.90;4.30;;;24.00;85.60;;;;;;4993127;28;20053;-69
2022/05/10 09:58:43;;;;;;;21.65;4.45;;;24.30;82.10;;;;;;4985231;28;20054;-67
2022/05/10 10:01:11;;;;;;;;;;;24.40;80.50;;;;;;4986602;28;20050;-67
2022/05/10 10:03:40;;;;;;;16.20;4.40;;;24.40;80.40;;;;;;4994657;28;20021;-67
2022/05/10 10:06:17;;;;;;;9.63;3.90;;;24.20;80.50;;;;;;4990836;28;20056;-68
2022/05/10 10:08:46;;;;;;;9.00;4.65;;;24.00;80.00;;;;;;4990583;28;20057;-68
2022/05/10 10:11:31;;;;;;;13.02;3.58;;;23.90;80.50;;;;;;4986134;28;20057;-68
2022/05/10 10:14:05;;;;;;;16.00;4.43;;;23.70;79.90;;;;;;4980497;28;20141;-67
2022/05/10 10:16:45;;;;;;;11.07;3.70;;;23.50;80.50;;;;;;4973149;28;20050;-67
2022/05/10 10:19:20;;;;;;;11.30;4.20;;;23.60;79.80;;;;;;4987623;28;20101;-67
2022/05/10 10:22:10;;;;;;;12.02;4.07;;;23.60;82.60;;;;;;4988589;28;20574;-68
2022/05/10 10:24:50;;;;;;;14.30;4.43;;;23.60;82.60;;;;;;4983741;28;20507;-67
2022/05/10 10:27:43;;;;;;;11.57;4.47;;;23.70;80.70;;;;;;4981189;28;20097;-68
2022/05/10 10:30:43;;;;;;;11.82;3.90;;;23.80;80.80;;;;;;4984772;28;20074;-67
2022/05/10 10:33:41;;;;;;;15.68;4.82;;;24.00;80.70;;;;;;4987414;28;20053;-67
2022/05/10 10:36:16;;;;;;;10.40;4.85;;;24.20;79.10;;;;;;4988080;28;20046;-68
2022/05/10 10:38:55;;;;;;;11.98;4.88;;;24.20;78.40;;;;;;4988600;28;20096;-67
2022/05/10 10:41:48;;;;;;;10.25;4.72;;;24.30;80.60;;;;;;4987610;28;20121;-67
2022/05/10 10:44:34;;;;;;;12.00;4.45;;;24.40;80.00;;;;;;4975798;28;20048;-67
2022/05/10 10:47:15;;;;;;;15.77;4.50;;;24.40;80.50;;;;;;4985412;28;20055;-67
2022/05/10 10:49:58;;;;;;;13.43;6.13;;;24.50;81.10;;;;;;4988102;28;20084;-67
2022/05/10 10:52:26;;;;;;;19.83;5.55;;;24.50;80.10;;;;;;4975864;28;20058;-67
2022/05/10 10:54:51;;;;;;;8.75;4.97;;;24.40;79.10;;;;;;4986463;28;20129;-67
2022/05/10 10:57:30;;;;;;;14.70;5.53;;;24.30;79.70;;;;;;5001082;28;20549;-68
2022/05/10 11:00:08;;;;;;;;;;;24.20;78.80;;;;;;4978536;28;20058;-67
2022/05/10 11:03:06;;;;;;;13.13;4.88;;;24.00;79.50;;;;;;4986634;28;19930;-68
2022/05/10 11:05:53;;;;;;;9.63;5.07;;;23.90;79.00;;;;;;4986362;28;20057;-67
2022/05/10 11:08:39;;;;;;;8.80;5.45;;;23.80;79.40;;;;;;4977354;28;20400;-67
2022/05/10 11:11:25;;;;;;;12.13;5.30;;;23.50;81.60;;;;;;4984899;28;20046;-67
2022/05/10 11:14:34;;;;;;;12.57;5.90;;;23.40;84.50;;;;;;4972692;28;20104;-67
2022/05/10 11:17:05;;;;;;;12.35;5.53;;;23.30;84.70;;;;;;4993484;28;20145;-67
2022/05/10 11:19:43;;;;;;;19.85;4.40;;;23.10;85.10;;;;;;4987347;28;20108;-67
2022/05/10 11:22:34;;;;;;;7.68;4.13;;;23.00;85.00;;;;;;4986638;28;20208;-66
2022/05/10 11:25:18;;;;;;;17.75;4.10;;;23.00;82.60;;;;;;4995624;28;20054;-67
2022/05/10 11:28:11;;;;;;;10.05;3.58;;;23.00;81.80;;;;;;4991030;28;20050;-67
2022/05/10 11:31:14;;;;;;;6.72;3.20;;;23.10;81.70;;;;;;4983665;28;20145;-67
2022/05/10 11:34:13;;;;;;;8.05;3.10;;;23.30;80.70;;;;;;4988581;28;20046;-67
2022/05/10 11:36:47;;;;;;;8.13;3.65;;;23.40;80.40;;;;;;4987077;28;20050;-67
2022/05/10 11:39:46;;;;;;;10.30;2.92;;;23.50;78.40;;;;;;4989252;28;20057;-68
2022/05/10 11:42:32;;;;;;;9.75;3.15;;;23.60;77.80;;;;;;4993209;28;20389;-67
2022/05/10 11:45:17;;;;;;;11.15;3.60;;;23.60;77.70;;;;;;4990425;28;20415;-66
2022/05/10 11:48:19;;;;;;;10.65;4.18;;;23.70;77.20;;;;;;4986128;28;20051;-66
2022/05/10 11:54:24;;;;;;;13.52;4.75;;;23.80;78.00;;;;;;4988939;28;20135;-68
2022/05/10 11:56:52;;;;;;;15.95;4.78;;;23.60;77.10;;;;;;4995202;28;20072;-67
2022/05/10 11:59:27;;;;;;;9.48;4.35;;;23.60;77.80;;;;;;4980856;28;20055;-67
2022/05/10 12:01:55;;;;;;;12.13;4.78;;;23.60;78.60;;;;;;4988226;28;20236;-67
2022/05/10 12:04:41;;;;;;;14.88;5.35;;;23.70;78.90;;;;;;4987186;28;20042;-67
2022/05/10 12:07:19;;;;;;;9.75;5.03;;;24.20;78.30;;;;;;4992202;28;20079;-67
2022/05/10 12:10:06;;;;;;;16.15;4.65;;;24.50;80.10;;;;;;4985945;28;20069;-66
2022/05/10 12:12:31;;;;;;;14.60;5.47;;;24.80;76.80;;;;;;4981300;28;20058;-67
2022/05/10 12:23:59;;;;;;;14.48;6.43;;;24.80;77.50;;;;;;4988177;28;20054;-67
2022/05/10 12:26:46;;;;;;;40.85;6.15;;;24.80;77.30;;;;;;4973495;28;20370;-66
2022/05/10 12:29:39;;;;;;;27.90;8.50;;;24.80;78.00;;;;;;4982805;28;20046;-66
2022/05/10 12:32:27;;;;;;;26.15;6.57;;;24.70;78.00;;;;;;4995644;28;20050;-66
2022/05/10 12:35:11;;;;;;;17.77;5.80;;;24.70;78.60;;;;;;4990787;28;20516;-68
2022/05/10 12:37:50;;;;;;;11.93;5.35;;;24.70;78.40;;;;;;4994250;28;20052;-68
2022/05/10 12:40:34;;;;;;;13.07;5.22;;;24.60;76.80;;;;;;4990339;28;20050;-68
2022/05/10 12:43:12;;;;;;;15.60;5.15;;;24.50;77.90;;;;;;4995947;28;20042;-69
2022/05/10 12:45:53;;;;;;;16.75;4.47;;;24.40;78.00;;;;;;4973434;28;20381;-68
2022/05/10 12:48:46;;;;;;;18.30;4.88;;;24.40;77.50;;;;;;5004910;28;20540;-67
2022/05/10 12:51:20;;;;;;;10.35;4.20;;;24.20;77.90;;;;;;4993634;28;20457;-67
2022/05/10 12:54:12;;;;;;;15.90;4.50;;;24.00;77.50;;;;;;5007980;28;20045;-68
2022/05/10 12:56:55;;;;;;;13.23;4.00;;;23.90;78.30;;;;;;4995378;28;20104;-67
2022/05/10 12:59:30;;;;;;;12.60;3.22;;;23.70;78.40;;;;;;5003208;28;20049;-66
2022/05/10 13:01:57;;;;;;;25.05;3.80;;;23.60;75.80;;;;;;4988165;28;20370;-68
2022/05/10 13:04:29;;;;;;;17.10;3.42;;;23.60;75.90;;;;;;5001518;28;20072;-67
2022/05/10 13:07:26;;;;;;;16.95;3.00;;;23.50;74.40;;;;;;4990351;28;20081;-67
2022/05/10 13:09:59;;;;;;;20.42;3.22;;;23.40;72.40;;;;;;4988984;28;20089;-67
2022/05/10 13:12:35;;;;;;;17.95;3.65;;;23.40;72.10;;;;;;4989599;28;20125;-67
2022/05/10 13:15:13;;;;;;;15.85;3.20;;;23.30;71.60;;;;;;4986240;28;20069;-68
2022/05/10 13:17:43;;;;;;;17.42;3.50;;;23.10;70.40;;;;;;4985605;28;20042;-68
2022/05/10 13:20:12;;;;;;;22.17;3.10;;;23.10;71.20;;;;;;4990939;28;20054;-68
2022/05/10 13:22:46;;;;;;;10.85;2.58;;;23.00;71.30;;;;;;4972293;28;20517;-69
2022/05/10 13:25:12;;;;;;;20.15;3.05;;;23.00;70.00;;;;;;4977031;28;20571;-69
2022/05/10 13:27:37;;;;;;;13.70;3.17;;;22.90;70.10;;;;;;4991663;28;20138;-68
2022/05/10 13:30:16;;;;;;;9.68;2.72;;;22.90;69.50;;;;;;4988855;28;20046;-68